createdAt,value
2023-03-17T00:04:55.179Z,3.81
2023-03-17T00:10:02.149Z,3.81
2023-03-17T00:15:08.135Z,3.81
2023-03-17T00:20:19.141Z,3.87
2023-03-17T00:25:31.216Z,3.72
2023-03-17T00:30:36.251Z,3.85
2023-03-17T00:35:41.865Z,3.73
2023-03-17T00:40:47.598Z,3.77
2023-03-17T00:45:51.252Z,3.88
2023-03-17T00:50:59.758Z,3.81
2023-03-17T00:56:15.679Z,3.78
2023-03-17T01:01:20.799Z,3.79
2023-03-17T01:06:24.774Z,3.77
2023-03-17T01:11:30.739Z,3.75
2023-03-17T01:16:35.552Z,3.74
2023-03-17T01:21:39.600Z,3.82
2023-03-17T01:26:46.940Z,3.93
2023-03-17T01:31:53.130Z,3.88
2023-03-17T01:37:00.166Z,3.85
2023-03-17T01:42:06.106Z,3.83
2023-03-17T01:47:11.544Z,3.96
2023-03-17T01:52:18.019Z,3.93
2023-03-17T01:57:29.927Z,4.00
2023-03-17T02:02:37.908Z,4.15
2023-03-17T02:07:43.000Z,3.84
2023-03-17T02:12:54.292Z,3.82
2023-03-17T02:17:58.748Z,3.78
2023-03-17T02:23:05.236Z,3.68
2023-03-17T02:28:17.604Z,3.76
2023-03-17T02:33:21.977Z,3.65
2023-03-17T02:38:28.714Z,3.75
2023-03-17T02:43:32.853Z,3.68
2023-03-17T02:48:39.954Z,3.54
2023-03-17T02:53:45.812Z,3.63
2023-03-17T02:58:52.190Z,3.68
2023-03-17T03:03:57.800Z,3.71
2023-03-17T03:09:03.990Z,3.69
2023-03-17T03:14:09.908Z,3.63
2023-03-17T03:19:14.834Z,3.49
2023-03-17T03:24:20.580Z,3.57
2023-03-17T03:29:24.906Z,3.59
2023-03-17T03:34:29.276Z,3.55
2023-03-17T03:39:35.831Z,3.61
2023-03-17T03:44:40.010Z,3.59
2023-03-17T03:49:43.838Z,3.60
2023-03-17T03:54:50.551Z,3.53
2023-03-17T03:59:54.960Z,3.51
2023-03-17T04:04:59.212Z,3.54
2023-03-17T04:10:05.305Z,3.47
2023-03-17T04:15:12.213Z,3.46
2023-03-17T04:20:18.093Z,3.56
2023-03-17T04:25:24.633Z,3.47
2023-03-17T04:30:29.024Z,3.55
2023-03-17T04:35:34.953Z,3.52
2023-03-17T04:40:41.101Z,3.50
2023-03-17T04:45:45.564Z,3.55
2023-03-17T04:50:49.779Z,3.54
2023-03-17T04:55:58.444Z,3.62
2023-03-17T05:01:03.849Z,3.65
2023-03-17T05:06:08.648Z,3.68
2023-03-17T05:11:14.483Z,3.73
2023-03-17T05:16:21.911Z,3.65
2023-03-17T05:21:26.571Z,3.73
2023-03-17T05:26:32.616Z,3.80
2023-03-17T05:31:37.769Z,3.87
2023-03-17T05:36:46.936Z,3.96
2023-03-17T05:42:01.758Z,3.89
2023-03-17T05:47:40.087Z,3.95
2023-03-17T05:52:49.881Z,3.95
2023-03-17T05:58:16.050Z,4.03
2023-03-17T06:03:27.281Z,4.13
2023-03-17T06:08:35.364Z,4.13
2023-03-17T06:13:42.518Z,4.22
2023-03-17T06:18:47.247Z,4.20
2023-03-17T06:23:52.680Z,4.26
2023-03-17T06:28:58.296Z,4.32
2023-03-17T06:34:03.362Z,4.57
2023-03-17T06:39:09.284Z,4.51
2023-03-17T06:44:15.727Z,4.60
2023-03-17T06:49:19.938Z,4.71
2023-03-17T06:54:25.687Z,4.70
2023-03-17T07:43:27.078Z,6.53
2023-03-17T08:03:08.992Z,7.09
2023-03-17T08:08:42.011Z,7.44
2023-03-17T08:13:47.052Z,6.85
2023-03-17T08:19:00.859Z,6.67
2023-03-17T08:24:10.368Z,6.74
2023-03-17T08:29:22.030Z,6.98
2023-03-17T08:34:31.783Z,6.52
2023-03-17T08:39:36.823Z,6.48
2023-03-17T08:44:42.866Z,6.34
2023-03-17T08:50:05.729Z,7.36
2023-03-17T08:55:13.978Z,8.51
2023-03-17T09:00:20.724Z,8.27
2023-03-17T09:05:45.227Z,8.13
2023-03-17T09:10:50.793Z,8.60
2023-03-17T09:15:54.872Z,8.55
2023-03-17T09:21:17.505Z,9.41
2023-03-17T09:26:25.007Z,9.73
2023-03-17T09:31:30.594Z,9.69
2023-03-17T09:36:37.952Z,10.60
2023-03-17T09:41:59.845Z,9.53
2023-03-17T09:47:21.145Z,10.04
2023-03-17T09:52:32.824Z,9.89
2023-03-17T09:57:38.976Z,10.28
2023-03-17T10:08:55.779Z,9.09
2023-03-17T10:14:06.230Z,9.62
2023-03-17T10:19:22.370Z,9.68
2023-03-17T10:24:33.338Z,9.39
2023-03-17T10:29:38.527Z,9.32
2023-03-17T10:34:43.990Z,9.54
2023-03-17T10:39:53.370Z,9.84
2023-03-17T10:45:02.233Z,9.94
2023-03-17T10:50:24.523Z,10.17
2023-03-17T10:55:34.615Z,9.78
2023-03-17T11:00:39.964Z,9.57
2023-03-17T11:05:57.679Z,9.76
2023-03-17T11:11:08.658Z,9.75
2023-03-17T11:17:40.359Z,9.42
2023-03-17T11:44:59.456Z,9.28
2023-03-17T11:50:09.689Z,9.73
2023-03-17T11:55:20.264Z,9.68
2023-03-17T12:00:33.150Z,9.94
2023-03-17T12:05:38.508Z,9.74
2023-03-17T12:10:46.056Z,9.79
2023-03-17T12:15:55.643Z,9.73
2023-03-17T12:21:04.639Z,9.93
2023-03-17T12:26:13.839Z,9.83
2023-03-17T12:31:22.944Z,9.88
2023-03-17T12:36:27.326Z,9.65
2023-03-17T12:42:10.084Z,9.87
2023-03-17T12:47:32.601Z,9.80
2023-03-17T12:52:53.033Z,10.01
2023-03-17T12:58:04.668Z,9.95
2023-03-17T13:03:20.346Z,10.10
2023-03-17T13:08:28.341Z,9.75
2023-03-17T13:13:41.685Z,9.96
2023-03-17T13:18:51.339Z,10.20
2023-03-17T13:24:00.303Z,10.07
2023-03-17T13:29:23.807Z,9.87
2023-03-17T13:34:30.049Z,9.97
2023-03-17T13:40:11.025Z,10.25
2023-03-17T13:45:38.578Z,10.45
2023-03-17T13:50:43.933Z,11.11
2023-03-17T13:56:09.792Z,11.31
2023-03-17T14:01:15.712Z,11.03
2023-03-17T14:06:26.948Z,10.90
2023-03-17T14:11:49.559Z,10.68
2023-03-17T14:17:10.996Z,10.40
2023-03-17T14:22:25.691Z,10.25
2023-03-17T14:27:37.897Z,10.19
2023-03-17T14:32:49.146Z,9.78
2023-03-17T14:38:02.989Z,9.38
2023-03-17T14:43:07.005Z,9.46
2023-03-17T14:48:28.891Z,9.27
2023-03-17T14:53:42.881Z,9.45
2023-03-17T14:58:51.648Z,9.09
2023-03-17T15:04:02.733Z,8.93
2023-03-17T15:09:19.681Z,8.79
2023-03-17T15:14:32.105Z,8.78
2023-03-17T15:19:42.905Z,8.66
2023-03-17T15:25:00.903Z,8.44
2023-03-17T15:30:15.882Z,8.32
2023-03-17T15:35:26.752Z,8.20
2023-03-17T15:40:34.136Z,8.37
2023-03-17T15:45:42.066Z,8.33
2023-03-17T15:50:51.521Z,8.19
2023-03-17T15:56:03.100Z,8.12
2023-03-17T16:01:07.704Z,7.98
2023-03-17T16:06:18.386Z,7.91
2023-03-17T16:11:29.536Z,7.77
2023-03-17T16:16:37.451Z,7.81
2023-03-17T16:21:51.495Z,7.75
2023-03-17T16:26:58.798Z,7.65
2023-03-17T16:32:09.835Z,7.68
2023-03-17T16:37:23.232Z,7.68
2023-03-17T16:42:29.084Z,7.70
2023-03-17T16:47:33.188Z,7.68
2023-03-17T16:52:39.930Z,7.61
2023-03-17T16:57:59.058Z,7.53
2023-03-17T17:03:03.413Z,7.48
2023-03-17T17:08:10.234Z,7.44
2023-03-17T17:13:20.287Z,7.47
2023-03-17T17:18:28.242Z,7.44
2023-03-17T17:23:33.850Z,7.44
2023-03-17T17:28:40.549Z,7.41
2023-03-17T17:33:45.330Z,7.40
2023-03-17T17:46:33.394Z,7.25
2023-03-17T17:53:21.378Z,7.12
2023-03-17T17:59:18.305Z,7.00
2023-03-17T18:04:34.792Z,6.94
2023-03-17T18:15:19.652Z,6.62
2023-03-17T18:20:36.097Z,6.50
2023-03-17T18:25:48.420Z,6.38
2023-03-17T18:36:17.218Z,6.18
2023-03-17T18:41:27.592Z,6.21
2023-03-17T18:46:47.034Z,6.11
2023-03-17T18:52:02.224Z,5.91
2023-03-17T18:57:11.856Z,5.88
2023-03-17T19:02:19.276Z,5.78
2023-03-17T19:07:25.339Z,5.56
2023-03-17T19:12:39.614Z,5.41
2023-03-17T19:17:47.031Z,5.40
2023-03-17T19:22:55.893Z,5.27
2023-03-17T19:28:08.044Z,5.18
2023-03-17T19:33:13.156Z,5.11
2023-03-17T19:38:26.215Z,5.12
2023-03-17T19:43:43.016Z,5.14
2023-03-17T19:48:48.570Z,4.96
2023-03-17T19:53:58.754Z,4.93
2023-03-17T19:59:04.978Z,4.83
2023-03-17T20:04:17.858Z,4.81
2023-03-17T20:09:39.498Z,4.58
2023-03-17T20:14:56.384Z,4.61
2023-03-17T20:20:09.407Z,4.52
2023-03-17T20:25:29.200Z,4.45
2023-03-17T20:30:39.300Z,4.29
2023-03-17T20:35:48.420Z,4.16
2023-03-17T20:41:13.768Z,4.15
2023-03-17T20:46:26.499Z,4.24
2023-03-17T20:51:41.469Z,4.23
2023-03-17T20:56:53.353Z,4.09
2023-03-17T21:02:00.173Z,3.93
2023-03-17T21:07:10.517Z,4.09
2023-03-17T21:12:19.830Z,3.97
2023-03-17T21:17:26.966Z,3.76
2023-03-17T21:22:41.797Z,3.76
2023-03-17T21:27:55.030Z,3.69
2023-03-17T21:33:00.406Z,3.58
2023-03-17T21:38:07.241Z,3.56
2023-03-17T21:43:20.998Z,3.33
2023-03-17T21:53:53.085Z,3.23
2023-03-17T21:59:04.697Z,3.43
2023-03-17T22:04:13.075Z,3.37
2023-03-17T22:09:23.099Z,2.99
2023-03-17T22:14:36.946Z,2.84
2023-03-17T22:19:48.766Z,2.74
2023-03-17T22:24:55.885Z,2.79
2023-03-17T22:30:15.759Z,2.68
2023-03-17T22:35:25.972Z,2.69
2023-03-17T22:40:42.941Z,2.66
2023-03-17T22:46:10.226Z,2.70
2023-03-17T22:51:19.053Z,2.57
2023-03-17T22:56:26.381Z,2.61
2023-03-17T23:01:38.474Z,2.73
2023-03-17T23:06:53.875Z,2.77
2023-03-17T23:17:21.928Z,2.56
2023-03-17T23:22:26.601Z,2.65
2023-03-17T23:27:32.239Z,2.58
2023-03-17T23:38:05.095Z,2.27
2023-03-17T23:43:22.060Z,2.39
2023-03-17T23:48:35.582Z,2.11
2023-03-17T23:53:49.455Z,2.07
2023-03-17T23:59:00.082Z,1.94
